createdAt,value
2023-02-12T00:01:00.112Z,6.00
2023-02-12T00:04:02.430Z,6.00
2023-02-12T00:07:04.607Z,6.00
2023-02-12T00:10:07.466Z,6.00
2023-02-12T00:13:11.187Z,6.00
2023-02-12T00:16:19.552Z,6.00
2023-02-12T00:19:21.727Z,6.00
2023-02-12T00:22:24.910Z,6.00
2023-02-12T00:25:27.138Z,6.00
2023-02-12T00:28:29.415Z,6.00
2023-02-12T00:31:32.409Z,6.00
2023-02-12T00:34:34.698Z,6.00
2023-02-12T00:37:36.975Z,6.00
2023-02-12T00:40:39.257Z,6.00
2023-02-12T00:43:41.809Z,6.00
2023-02-12T00:46:44.120Z,6.00
2023-02-12T00:49:46.374Z,6.00
2023-02-12T00:52:48.686Z,5.90
2023-02-12T00:55:51.769Z,6.00
2023-02-12T00:58:53.991Z,6.00
2023-02-12T01:01:56.587Z,6.00
2023-02-12T01:04:59.550Z,6.00
2023-02-12T01:08:02.211Z,6.00
2023-02-12T01:11:06.337Z,5.90
2023-02-12T01:14:08.910Z,6.00
2023-02-12T01:17:11.149Z,6.00
2023-02-12T01:20:17.854Z,5.90
2023-02-12T01:23:20.062Z,5.90
2023-02-12T01:26:23.784Z,6.00
2023-02-12T01:29:25.929Z,5.90
2023-02-12T01:32:28.404Z,5.90
2023-02-12T01:35:30.563Z,6.00
2023-02-12T01:38:32.928Z,5.90
2023-02-12T01:41:39.631Z,6.00
2023-02-12T01:45:10.721Z,5.90
2023-02-12T01:48:15.519Z,6.00
2023-02-12T01:51:22.362Z,6.00
2023-02-12T01:54:26.651Z,6.00
2023-02-12T01:57:32.427Z,5.90
2023-02-12T02:00:34.660Z,5.90
2023-02-12T02:03:39.642Z,6.00
2023-02-12T02:06:54.350Z,5.90
2023-02-12T02:09:57.997Z,5.90
2023-02-12T02:13:23.075Z,5.90
2023-02-12T02:16:28.077Z,5.90
2023-02-12T02:20:04.469Z,5.90
2023-02-12T02:23:29.844Z,5.90
2023-02-12T02:26:47.472Z,5.90
2023-02-12T02:30:04.587Z,5.90
2023-02-12T02:33:40.880Z,5.90
2023-02-12T02:37:03.765Z,5.90
2023-02-12T02:40:14.858Z,5.90
2023-02-12T02:43:23.924Z,5.90
2023-02-12T02:46:26.134Z,5.90
2023-02-12T02:49:39.409Z,5.90
2023-02-12T02:52:45.592Z,5.90
2023-02-12T02:55:52.431Z,5.90
2023-02-12T02:59:01.781Z,5.90
2023-02-12T03:02:14.016Z,5.90
2023-02-12T03:05:37.863Z,5.90
2023-02-12T03:08:46.938Z,5.90
2023-02-12T03:11:51.106Z,5.90
2023-02-12T03:15:05.429Z,5.80
2023-02-12T03:18:12.978Z,5.80
2023-02-12T03:21:19.621Z,5.80
2023-02-12T03:24:58.884Z,5.80
2023-02-12T03:28:15.297Z,5.80
2023-02-12T03:32:04.930Z,5.80
2023-02-12T03:35:24.734Z,5.80
2023-02-12T03:38:26.980Z,5.80
2023-02-12T03:41:41.959Z,5.80
2023-02-12T03:44:56.475Z,5.90
2023-02-12T03:48:23.386Z,5.80
2023-02-12T03:51:31.770Z,5.80
2023-02-12T03:54:34.046Z,5.80
2023-02-12T03:57:44.521Z,5.80
2023-02-12T04:00:46.872Z,5.80
2023-02-12T04:03:49.145Z,5.80
2023-02-12T04:06:52.899Z,5.80
2023-02-12T04:09:55.112Z,5.80
2023-02-12T04:13:12.280Z,5.80
2023-02-12T04:16:33.726Z,5.80
2023-02-12T04:19:43.878Z,5.80
2023-02-12T04:23:11.809Z,5.80
2023-02-12T04:26:36.198Z,5.80
2023-02-12T04:29:56.300Z,5.80
2023-02-12T04:33:04.478Z,5.80
2023-02-12T04:36:17.113Z,5.80
2023-02-12T04:39:23.474Z,5.80
2023-02-12T04:42:26.012Z,5.80
2023-02-12T04:45:30.807Z,5.70
2023-02-12T04:48:34.729Z,5.70
2023-02-12T04:51:36.951Z,5.80
2023-02-12T04:54:39.310Z,5.70
2023-02-12T04:57:41.571Z,5.70
2023-02-12T05:00:43.775Z,5.70
2023-02-12T05:03:45.926Z,5.70
2023-02-12T05:06:48.104Z,5.70
2023-02-12T05:09:50.261Z,5.70
2023-02-12T05:12:53.842Z,5.70
2023-02-12T05:15:56.274Z,5.70
2023-02-12T05:18:58.580Z,5.70
2023-02-12T05:22:00.816Z,5.70
2023-02-12T05:25:03.157Z,5.70
2023-02-12T05:28:05.327Z,5.70
2023-02-12T05:31:09.180Z,5.70
2023-02-12T05:34:12.529Z,5.70
2023-02-12T05:37:14.862Z,5.70
2023-02-12T05:40:17.457Z,5.70
2023-02-12T05:43:19.592Z,5.70
2023-02-12T05:46:22.538Z,5.70
2023-02-12T05:49:24.803Z,5.70
2023-02-12T05:52:27.033Z,5.70
2023-02-12T05:55:29.368Z,5.70
2023-02-12T05:58:31.508Z,5.70
2023-02-12T06:01:36.554Z,5.70
2023-02-12T06:04:38.693Z,5.70
2023-02-12T06:07:40.788Z,5.70
2023-02-12T06:10:42.978Z,5.70
2023-02-12T06:13:45.631Z,5.70
2023-02-12T06:16:49.744Z,5.70
2023-02-12T06:19:51.904Z,5.70
2023-02-12T06:22:54.063Z,5.70
2023-02-12T06:25:57.577Z,5.70
2023-02-12T06:29:01.134Z,5.70
2023-02-12T06:32:03.584Z,5.70
2023-02-12T06:35:06.318Z,5.70
2023-02-12T06:38:09.407Z,5.70
2023-02-12T06:41:12.228Z,5.70
2023-02-12T06:44:14.743Z,5.70
2023-02-12T06:47:16.931Z,5.70
2023-02-12T06:50:19.487Z,5.70
2023-02-12T06:53:22.035Z,5.70
2023-02-12T06:56:25.493Z,5.70
2023-02-12T06:59:27.619Z,5.70
2023-02-12T07:02:29.798Z,5.70
2023-02-12T07:05:32.945Z,5.70
2023-02-12T07:08:35.182Z,5.70
2023-02-12T07:11:38.598Z,5.70
2023-02-12T07:14:41.112Z,5.70
2023-02-12T07:17:43.263Z,5.70
2023-02-12T07:20:45.452Z,5.60
2023-02-12T07:23:51.382Z,5.60
2023-02-12T07:26:53.801Z,5.70
2023-02-12T07:29:55.932Z,5.70
2023-02-12T07:32:57.986Z,5.60
2023-02-12T07:36:01.320Z,5.60
2023-02-12T07:39:04.524Z,5.60
2023-02-12T07:42:08.707Z,5.60
2023-02-12T07:45:11.075Z,5.60
2023-02-12T07:48:13.349Z,5.60
2023-02-12T07:51:19.487Z,5.60
2023-02-12T07:54:21.735Z,5.60
2023-02-12T07:57:23.833Z,5.60
2023-02-12T08:00:25.959Z,5.60
2023-02-12T08:03:29.396Z,5.60
2023-02-12T08:06:34.162Z,5.60
2023-02-12T08:09:36.412Z,5.70
2023-02-12T08:12:38.581Z,5.60
2023-02-12T08:15:40.812Z,5.60
2023-02-12T08:18:43.835Z,5.60
2023-02-12T08:21:47.467Z,5.70
2023-02-12T08:24:49.596Z,5.60
2023-02-12T08:27:51.726Z,5.60
2023-02-12T08:30:53.992Z,5.60
2023-02-12T08:33:57.054Z,5.60
2023-02-12T08:37:00.398Z,5.60
2023-02-12T08:40:02.513Z,5.60
2023-02-12T08:43:04.674Z,5.60
2023-02-12T08:46:16.207Z,5.60
2023-02-12T08:49:21.151Z,5.60
2023-02-12T08:52:23.414Z,5.60
2023-02-12T08:55:25.629Z,5.60
2023-02-12T08:58:27.887Z,5.60
2023-02-12T09:01:33.492Z,5.60
2023-02-12T09:04:36.086Z,5.60
2023-02-12T09:07:38.181Z,5.60
2023-02-12T09:10:42.108Z,5.60
2023-02-12T09:13:46.046Z,5.70
2023-02-12T09:16:48.242Z,5.70
2023-02-12T09:19:50.396Z,5.70
2023-02-12T09:22:54.163Z,5.70
2023-02-12T09:25:56.649Z,5.60
2023-02-12T09:28:59.264Z,5.60
2023-02-12T09:32:04.908Z,5.70
2023-02-12T09:35:07.354Z,5.70
2023-02-12T09:38:09.617Z,5.70
2023-02-12T09:41:42.733Z,5.70
2023-02-12T09:45:12.745Z,5.70
2023-02-12T09:48:47.215Z,5.70
2023-02-12T09:51:54.050Z,5.70
2023-02-12T09:54:57.055Z,5.70
2023-02-12T09:58:02.415Z,5.70
2023-02-12T10:01:13.744Z,5.70
2023-02-12T10:04:16.051Z,5.70
2023-02-12T10:07:43.147Z,5.70
2023-02-12T10:11:22.726Z,5.70
2023-02-12T10:14:48.106Z,5.70
2023-02-12T10:18:18.037Z,5.70
2023-02-12T10:21:42.030Z,5.70
2023-02-12T10:25:18.044Z,5.70
2023-02-12T10:28:35.938Z,5.70
2023-02-12T10:31:43.067Z,5.70
2023-02-12T10:34:46.017Z,5.70
2023-02-12T10:37:57.152Z,5.70
2023-02-12T10:41:02.117Z,5.70
2023-02-12T10:44:04.348Z,5.70
2023-02-12T10:47:08.710Z,5.70
2023-02-12T10:50:48.335Z,5.70
2023-02-12T10:53:50.438Z,5.70
2023-02-12T10:56:52.636Z,5.70
2023-02-12T11:00:13.838Z,5.70
2023-02-12T11:03:24.251Z,5.70
2023-02-12T11:06:30.155Z,5.80
2023-02-12T11:09:36.766Z,5.70
2023-02-12T11:12:48.391Z,5.70
2023-02-12T11:15:51.354Z,5.70
2023-02-12T11:19:06.381Z,5.70
2023-02-12T11:22:19.049Z,5.70
2023-02-12T11:25:22.252Z,5.80
2023-02-12T11:28:24.671Z,5.80
2023-02-12T11:31:35.390Z,5.80
2023-02-12T11:34:38.220Z,5.80
2023-02-12T11:37:43.400Z,5.80
2023-02-12T11:40:47.687Z,5.80
2023-02-12T11:43:51.959Z,5.80
2023-02-12T11:46:58.875Z,5.80
2023-02-12T11:50:25.908Z,5.80
2023-02-12T11:53:33.353Z,5.80
2023-02-12T11:56:44.920Z,5.80
2023-02-12T11:59:48.406Z,5.80
2023-02-12T12:03:16.895Z,5.80
2023-02-12T12:06:24.634Z,5.80
2023-02-12T12:09:30.429Z,5.80
2023-02-12T12:12:53.989Z,5.80
2023-02-12T12:16:39.652Z,5.80
2023-02-12T12:19:53.123Z,5.80
2023-02-12T12:23:01.045Z,5.80
2023-02-12T12:26:13.202Z,5.80
2023-02-12T12:29:22.380Z,5.80
2023-02-12T12:32:26.777Z,5.80
2023-02-12T12:35:45.743Z,5.80
2023-02-12T12:39:00.103Z,5.90
2023-02-12T12:42:40.312Z,5.80
2023-02-12T12:46:01.385Z,5.80
2023-02-12T12:49:30.574Z,5.90
2023-02-12T12:52:44.519Z,5.90
2023-02-12T12:56:00.594Z,5.90
2023-02-12T12:59:22.096Z,5.90
2023-02-12T13:02:34.462Z,5.90
2023-02-12T13:06:07.626Z,5.90
2023-02-12T13:09:31.882Z,5.90
2023-02-12T13:12:53.144Z,5.90
2023-02-12T13:16:16.487Z,5.90
2023-02-12T13:19:37.161Z,5.90
2023-02-12T13:23:01.645Z,5.90
2023-02-12T13:26:06.659Z,5.90
2023-02-12T13:29:20.519Z,5.90
2023-02-12T13:32:34.869Z,5.90
2023-02-12T13:35:41.710Z,5.90
2023-02-12T13:39:07.120Z,5.90
2023-02-12T13:42:15.305Z,5.90
2023-02-12T13:45:35.282Z,6.00
2023-02-12T13:48:56.165Z,6.00
2023-02-12T13:52:10.537Z,6.00
2023-02-12T13:55:28.599Z,6.00
2023-02-12T13:58:35.173Z,6.00
2023-02-12T14:01:43.727Z,6.00
2023-02-12T14:04:55.514Z,6.00
2023-02-12T14:08:05.756Z,6.00
2023-02-12T14:11:12.842Z,6.00
2023-02-12T14:14:26.215Z,6.00
2023-02-12T14:17:31.630Z,6.00
2023-02-12T14:20:36.409Z,6.00
2023-02-12T14:23:42.208Z,6.00
2023-02-12T14:26:44.638Z,6.00
2023-02-12T14:30:11.913Z,6.10
2023-02-12T14:33:26.620Z,6.10
2023-02-12T14:36:32.162Z,6.20
2023-02-12T14:39:34.470Z,6.20
2023-02-12T14:42:37.161Z,6.30
2023-02-12T14:45:39.302Z,6.30
2023-02-12T14:48:59.333Z,6.40
2023-02-12T14:55:53.818Z,6.50
2023-02-12T14:58:59.265Z,6.50
2023-02-12T15:02:03.867Z,6.50
2023-02-12T15:05:14.274Z,6.60
2023-02-12T15:08:35.105Z,6.60
2023-02-12T15:11:45.246Z,6.60
2023-02-12T15:15:02.689Z,6.60
2023-02-12T15:18:43.159Z,6.60
2023-02-12T15:21:46.387Z,6.70
2023-02-12T15:24:48.863Z,6.70
2023-02-12T15:27:55.535Z,6.70
2023-02-12T15:30:57.987Z,6.70
2023-02-12T15:34:03.691Z,6.70
2023-02-12T15:37:07.632Z,6.70
2023-02-12T15:40:15.946Z,6.70
2023-02-12T15:43:18.981Z,6.70
2023-02-12T15:46:21.284Z,6.70
2023-02-12T15:49:29.357Z,6.80
2023-02-12T15:52:36.336Z,6.80
2023-02-12T15:55:42.559Z,6.80
2023-02-12T15:58:49.156Z,6.80
2023-02-12T16:02:03.616Z,6.80
2023-02-12T16:05:06.777Z,6.80
2023-02-12T16:08:14.941Z,6.80
2023-02-12T16:11:22.289Z,6.80
2023-02-12T16:14:36.868Z,6.80
2023-02-12T16:17:47.240Z,6.80
2023-02-12T16:20:50.192Z,6.80
2023-02-12T16:23:52.404Z,6.80
2023-02-12T16:26:55.840Z,6.80
2023-02-12T16:30:08.603Z,6.80
2023-02-12T16:33:45.478Z,6.90
2023-02-12T16:36:47.638Z,6.80
2023-02-12T16:40:00.922Z,6.80
2023-02-12T16:43:21.828Z,6.80
2023-02-12T16:46:24.093Z,6.80
2023-02-12T16:49:27.273Z,6.80
2023-02-12T16:52:41.131Z,6.80
2023-02-12T16:55:43.347Z,6.80
2023-02-12T16:58:48.607Z,6.80
2023-02-12T17:02:07.169Z,6.80
2023-02-12T17:05:10.461Z,6.80
2023-02-12T17:08:18.834Z,6.80
2023-02-12T17:11:23.313Z,6.80
2023-02-12T17:14:25.523Z,6.70
2023-02-12T17:17:27.829Z,6.80
2023-02-12T17:20:30.181Z,6.80
2023-02-12T17:23:33.393Z,6.80
2023-02-12T17:26:35.672Z,6.80
2023-02-12T17:29:38.044Z,6.70
2023-02-12T17:32:40.168Z,6.80
2023-02-12T17:35:42.638Z,6.80
2023-02-12T17:38:44.827Z,6.80
2023-02-12T17:41:47.231Z,6.80
2023-02-12T17:44:49.796Z,6.80
2023-02-12T17:47:52.016Z,6.80
2023-02-12T17:50:57.065Z,6.80
2023-02-12T17:53:59.452Z,6.80
2023-02-12T17:57:01.605Z,6.80
2023-02-12T18:00:06.363Z,6.80
2023-02-12T18:03:12.712Z,6.80
2023-02-12T18:06:21.158Z,6.80
2023-02-12T18:09:23.314Z,6.80
2023-02-12T18:12:25.436Z,6.80
2023-02-12T18:15:27.644Z,6.80
2023-02-12T18:18:29.843Z,6.80
2023-02-12T18:21:34.072Z,6.80
2023-02-12T18:24:36.915Z,6.80
2023-02-12T18:27:39.649Z,6.80
2023-02-12T18:30:43.383Z,6.80
2023-02-12T18:33:45.725Z,6.90
2023-02-12T18:36:48.920Z,6.90
2023-02-12T18:39:51.209Z,6.80
2023-02-12T18:42:53.514Z,6.90
2023-02-12T18:45:55.804Z,6.90
2023-02-12T18:48:58.783Z,6.90
2023-02-12T18:52:02.203Z,6.90
2023-02-12T18:55:06.515Z,6.90
2023-02-12T18:58:08.850Z,6.90
2023-02-12T19:01:19.977Z,6.90
2023-02-12T19:04:24.219Z,6.90
2023-02-12T19:07:27.518Z,6.90
2023-02-12T19:10:29.850Z,6.80
2023-02-12T19:13:32.063Z,6.90
2023-02-12T19:16:34.424Z,6.90
2023-02-12T19:19:36.878Z,6.90
2023-02-12T19:22:39.941Z,6.90
2023-02-12T19:25:45.378Z,6.90
2023-02-12T19:28:47.702Z,6.90
2023-02-12T19:31:50.081Z,6.90
2023-02-12T19:34:52.313Z,6.90
2023-02-12T19:37:54.538Z,6.90
2023-02-12T19:41:08.314Z,6.90
2023-02-12T19:44:14.556Z,6.90
2023-02-12T19:47:16.758Z,6.90
2023-02-12T19:50:19.057Z,6.90
2023-02-12T19:53:21.292Z,6.90
2023-02-12T19:56:23.456Z,6.90
2023-02-12T19:59:27.240Z,6.90
2023-02-12T20:02:29.500Z,6.90
2023-02-12T20:05:31.628Z,6.90
2023-02-12T20:08:33.803Z,7.00
2023-02-12T20:11:40.270Z,6.90
2023-02-12T20:14:42.635Z,6.90
2023-02-12T20:17:44.870Z,6.90
2023-02-12T20:20:47.102Z,6.90
2023-02-12T20:23:49.582Z,7.00
2023-02-12T20:26:52.954Z,6.90
2023-02-12T20:29:55.275Z,6.90
2023-02-12T20:32:57.516Z,7.00
2023-02-12T20:35:59.751Z,6.90
2023-02-12T20:39:02.073Z,6.90
2023-02-12T20:42:04.444Z,7.00
2023-02-12T20:45:06.863Z,7.00
2023-02-12T20:48:09.003Z,7.00
2023-02-12T20:51:14.673Z,7.00
2023-02-12T20:54:16.839Z,6.90
2023-02-12T20:57:18.960Z,7.00
2023-02-12T21:00:21.390Z,7.00
2023-02-12T21:03:23.493Z,7.00
2023-02-12T21:06:25.785Z,7.00
2023-02-12T21:09:28.180Z,7.00
2023-02-12T21:12:30.392Z,7.00
2023-02-12T21:15:32.699Z,7.00
2023-02-12T21:18:34.901Z,7.00
2023-02-12T21:21:39.320Z,7.00
2023-02-12T21:24:41.518Z,7.00
2023-02-12T21:27:43.727Z,7.00
2023-02-12T21:30:46.452Z,6.90
2023-02-12T21:33:50.352Z,7.00
2023-02-12T21:36:56.984Z,7.00
2023-02-12T21:39:59.233Z,7.00
2023-02-12T21:43:02.112Z,7.00
2023-02-12T21:46:05.287Z,7.00
2023-02-12T21:49:07.990Z,7.00
2023-02-12T21:52:11.566Z,7.00
2023-02-12T21:55:13.764Z,7.00
2023-02-12T21:58:16.023Z,7.00
2023-02-12T22:01:24.094Z,6.90
2023-02-12T22:04:26.637Z,7.00
2023-02-12T22:07:28.781Z,7.00
2023-02-12T22:10:31.201Z,7.00
2023-02-12T22:13:34.076Z,7.00
2023-02-12T22:16:36.905Z,7.00
2023-02-12T22:19:39.514Z,7.00
2023-02-12T22:22:41.663Z,7.00
2023-02-12T22:25:43.859Z,6.90
2023-02-12T22:28:48.375Z,6.90
2023-02-12T22:31:50.671Z,6.90
2023-02-12T22:34:53.489Z,7.00
2023-02-12T22:37:55.629Z,6.90
2023-02-12T22:40:58.100Z,7.00
2023-02-12T22:44:02.286Z,7.00
2023-02-12T22:47:04.704Z,6.90
2023-02-12T22:50:07.559Z,6.90
2023-02-12T22:53:09.723Z,6.90
2023-02-12T22:56:12.237Z,6.90
2023-02-12T22:59:14.508Z,6.90
2023-02-12T23:02:16.781Z,6.90
2023-02-12T23:05:18.958Z,6.90
2023-02-12T23:08:21.095Z,7.00
2023-02-12T23:11:26.574Z,6.90
2023-02-12T23:14:28.733Z,7.00
2023-02-12T23:17:30.892Z,6.90
2023-02-12T23:20:33.141Z,6.90
2023-02-12T23:23:35.362Z,6.90
2023-02-12T23:26:37.558Z,6.90
2023-02-12T23:29:40.466Z,6.90
2023-02-12T23:32:42.766Z,6.90
2023-02-12T23:35:45.976Z,6.90
2023-02-12T23:38:48.274Z,6.90
2023-02-12T23:41:50.391Z,6.90
2023-02-12T23:44:52.541Z,6.90
2023-02-12T23:47:55.136Z,6.90
2023-02-12T23:50:57.852Z,6.90
2023-02-12T23:54:01.901Z,6.90
2023-02-12T23:57:04.199Z,6.90
